sensor_id;sensor_type;location;lat;lon;timestamp;P1;durP1;ratioP1;P2;durP2;ratioP2
61397;SDS011;47267;48.130;-2.040;2024-01-06T00:01:48;10.10;;;7.50;;
61397;SDS011;47267;48.130;-2.040;2024-01-06T00:04:13;10.25;;;7.57;;
61397;SDS011;47267;48.130;-2.040;2024-01-06T00:06:39;9.60;;;7.15;;
61397;SDS011;47267;48.130;-2.040;2024-01-06T00:09:05;8.70;;;7.05;;
61397;SDS011;47267;48.130;-2.040;2024-01-06T00:11:31;8.93;;;7.35;;
61397;SDS011;47267;48.130;-2.040;2024-01-06T00:13:56;9.50;;;7.50;;
61397;SDS011;47267;48.130;-2.040;2024-01-06T00:16:22;9.63;;;6.97;;
61397;SDS011;47267;48.130;-2.040;2024-01-06T00:18:48;8.20;;;6.55;;
61397;SDS011;47267;48.130;-2.040;2024-01-06T00:21:13;9.82;;;6.63;;
61397;SDS011;47267;48.130;-2.040;2024-01-06T00:23:39;10.02;;;6.80;;
61397;SDS011;47267;48.130;-2.040;2024-01-06T00:26:06;9.98;;;7.05;;
61397;SDS011;47267;48.130;-2.040;2024-01-06T00:28:32;7.88;;;6.40;;
61397;SDS011;47267;48.130;-2.040;2024-01-06T00:30:58;8.93;;;6.50;;
61397;SDS011;47267;48.130;-2.040;2024-01-06T00:33:23;9.52;;;6.32;;
61397;SDS011;47267;48.130;-2.040;2024-01-06T00:35:49;8.82;;;6.60;;
61397;SDS011;47267;48.130;-2.040;2024-01-06T00:38:14;8.30;;;6.40;;
61397;SDS011;47267;48.130;-2.040;2024-01-06T00:40:40;9.38;;;6.72;;
61397;SDS011;47267;48.130;-2.040;2024-01-06T00:43:06;9.55;;;6.72;;
61397;SDS011;47267;48.130;-2.040;2024-01-06T00:45:32;8.40;;;6.03;;
61397;SDS011;47267;48.130;-2.040;2024-01-06T00:47:57;8.70;;;6.15;;
61397;SDS011;47267;48.130;-2.040;2024-01-06T00:50:23;8.80;;;6.53;;
61397;SDS011;47267;48.130;-2.040;2024-01-06T00:52:49;7.55;;;5.70;;
61397;SDS011;47267;48.130;-2.040;2024-01-06T00:55:18;9.38;;;6.55;;
61397;SDS011;47267;48.130;-2.040;2024-01-06T00:57:44;8.52;;;6.10;;
61397;SDS011;47267;48.130;-2.040;2024-01-06T01:00:10;8.18;;;5.45;;
61397;SDS011;47267;48.130;-2.040;2024-01-06T01:02:36;7.75;;;6.03;;
61397;SDS011;47267;48.130;-2.040;2024-01-06T01:05:02;7.10;;;5.47;;
61397;SDS011;47267;48.130;-2.040;2024-01-06T01:07:28;7.28;;;5.70;;
61397;SDS011;47267;48.130;-2.040;2024-01-06T01:09:53;7.70;;;5.53;;
61397;SDS011;47267;48.130;-2.040;2024-01-06T01:12:21;7.10;;;5.15;;
61397;SDS011;47267;48.130;-2.040;2024-01-06T01:14:47;7.32;;;5.63;;
61397;SDS011;47267;48.130;-2.040;2024-01-06T01:17:12;8.00;;;5.78;;
61397;SDS011;47267;48.130;-2.040;2024-01-06T01:19:38;6.97;;;5.47;;
61397;SDS011;47267;48.130;-2.040;2024-01-06T01:22:04;7.90;;;5.90;;
61397;SDS011;47267;48.130;-2.040;2024-01-06T01:24:30;7.03;;;5.05;;
61397;SDS011;47267;48.130;-2.040;2024-01-06T01:26:55;6.93;;;5.15;;
61397;SDS011;47267;48.130;-2.040;2024-01-06T01:29:21;7.13;;;5.13;;
61397;SDS011;47267;48.130;-2.040;2024-01-06T01:31:47;7.32;;;5.10;;
61397;SDS011;47267;48.130;-2.040;2024-01-06T01:34:12;7.15;;;4.90;;
61397;SDS011;47267;48.130;-2.040;2024-01-06T01:36:38;6.45;;;5.20;;
61397;SDS011;47267;48.130;-2.040;2024-01-06T01:39:04;6.78;;;5.25;;
61397;SDS011;47267;48.130;-2.040;2024-01-06T01:41:30;7.50;;;5.13;;
61397;SDS011;47267;48.130;-2.040;2024-01-06T01:43:56;6.38;;;4.75;;
61397;SDS011;47267;48.130;-2.040;2024-01-06T01:46:25;6.95;;;5.00;;
61397;SDS011;47267;48.130;-2.040;2024-01-06T01:48:53;6.55;;;4.82;;
61397;SDS011;47267;48.130;-2.040;2024-01-06T01:51:20;6.25;;;4.47;;
61397;SDS011;47267;48.130;-2.040;2024-01-06T01:53:46;5.65;;;4.65;;
61397;SDS011;47267;48.130;-2.040;2024-01-06T01:56:12;6.35;;;5.10;;
61397;SDS011;47267;48.130;-2.040;2024-01-06T01:58:38;7.28;;;4.80;;
61397;SDS011;47267;48.130;-2.040;2024-01-06T02:01:05;6.18;;;4.55;;
61397;SDS011;47267;48.130;-2.040;2024-01-06T02:03:32;5.25;;;4.18;;
61397;SDS011;47267;48.130;-2.040;2024-01-06T02:05:58;5.65;;;4.40;;
61397;SDS011;47267;48.130;-2.040;2024-01-06T02:08:24;5.70;;;4.35;;
61397;SDS011;47267;48.130;-2.040;2024-01-06T02:10:50;6.18;;;4.43;;
61397;SDS011;47267;48.130;-2.040;2024-01-06T02:13:15;5.35;;;4.18;;
61397;SDS011;47267;48.130;-2.040;2024-01-06T02:15:41;6.35;;;4.47;;
61397;SDS011;47267;48.130;-2.040;2024-01-06T02:18:07;6.40;;;4.55;;
61397;SDS011;47267;48.130;-2.040;2024-01-06T02:20:32;6.00;;;4.35;;
61397;SDS011;47267;48.130;-2.040;2024-01-06T02:22:59;5.80;;;4.53;;
61397;SDS011;47267;48.130;-2.040;2024-01-06T02:25:25;5.80;;;4.18;;
61397;SDS011;47267;48.130;-2.040;2024-01-06T02:27:51;4.93;;;3.83;;
61397;SDS011;47267;48.130;-2.040;2024-01-06T02:30:17;4.97;;;4.18;;
61397;SDS011;47267;48.130;-2.040;2024-01-06T02:32:42;5.32;;;3.95;;
61397;SDS011;47267;48.130;-2.040;2024-01-06T02:35:08;4.60;;;3.67;;
61397;SDS011;47267;48.130;-2.040;2024-01-06T02:37:34;6.25;;;4.03;;
61397;SDS011;47267;48.130;-2.040;2024-01-06T02:39:59;5.40;;;4.25;;
61397;SDS011;47267;48.130;-2.040;2024-01-06T02:42:25;6.03;;;4.20;;
61397;SDS011;47267;48.130;-2.040;2024-01-06T02:44:51;6.07;;;3.88;;
61397;SDS011;47267;48.130;-2.040;2024-01-06T02:47:16;5.53;;;3.95;;
61397;SDS011;47267;48.130;-2.040;2024-01-06T02:49:42;5.07;;;4.00;;
61397;SDS011;47267;48.130;-2.040;2024-01-06T02:52:08;5.35;;;4.22;;
61397;SDS011;47267;48.130;-2.040;2024-01-06T02:54:34;4.55;;;3.60;;
61397;SDS011;47267;48.130;-2.040;2024-01-06T02:56:59;4.15;;;3.35;;
61397;SDS011;47267;48.130;-2.040;2024-01-06T02:59:25;4.95;;;3.35;;
61397;SDS011;47267;48.130;-2.040;2024-01-06T03:01:51;5.35;;;3.58;;
61397;SDS011;47267;48.130;-2.040;2024-01-06T03:04:16;4.53;;;3.58;;
61397;SDS011;47267;48.130;-2.040;2024-01-06T03:06:42;5.15;;;3.90;;
61397;SDS011;47267;48.130;-2.040;2024-01-06T03:09:08;4.80;;;3.33;;
61397;SDS011;47267;48.130;-2.040;2024-01-06T03:11:33;5.25;;;3.50;;
61397;SDS011;47267;48.130;-2.040;2024-01-06T03:14:00;5.00;;;3.35;;
61397;SDS011;47267;48.130;-2.040;2024-01-06T03:16:25;3.22;;;2.70;;
61397;SDS011;47267;48.130;-2.040;2024-01-06T03:18:51;4.32;;;3.28;;
61397;SDS011;47267;48.130;-2.040;2024-01-06T03:21:18;5.50;;;3.58;;
61397;SDS011;47267;48.130;-2.040;2024-01-06T03:23:44;4.63;;;2.83;;
61397;SDS011;47267;48.130;-2.040;2024-01-06T03:26:09;4.07;;;2.90;;
61397;SDS011;47267;48.130;-2.040;2024-01-06T03:28:36;4.68;;;2.80;;
61397;SDS011;47267;48.130;-2.040;2024-01-06T03:31:04;5.13;;;2.85;;
61397;SDS011;47267;48.130;-2.040;2024-01-06T03:33:30;4.90;;;2.90;;
61397;SDS011;47267;48.130;-2.040;2024-01-06T03:35:56;3.88;;;2.80;;
61397;SDS011;47267;48.130;-2.040;2024-01-06T03:38:21;4.25;;;2.92;;
61397;SDS011;47267;48.130;-2.040;2024-01-06T03:40:47;5.00;;;3.08;;
61397;SDS011;47267;48.130;-2.040;2024-01-06T03:43:12;4.43;;;2.75;;
61397;SDS011;47267;48.130;-2.040;2024-01-06T03:45:38;4.30;;;2.53;;
61397;SDS011;47267;48.130;-2.040;2024-01-06T03:48:04;3.53;;;2.60;;
61397;SDS011;47267;48.130;-2.040;2024-01-06T03:50:30;3.58;;;2.72;;
61397;SDS011;47267;48.130;-2.040;2024-01-06T03:52:55;3.85;;;2.85;;
61397;SDS011;47267;48.130;-2.040;2024-01-06T03:55:22;3.10;;;2.40;;
61397;SDS011;47267;48.130;-2.040;2024-01-06T03:57:47;2.92;;;2.13;;
61397;SDS011;47267;48.130;-2.040;2024-01-06T04:00:13;4.18;;;2.80;;
61397;SDS011;47267;48.130;-2.040;2024-01-06T04:02:39;4.20;;;2.60;;
61397;SDS011;47267;48.130;-2.040;2024-01-06T04:05:05;3.47;;;2.47;;
61397;SDS011;47267;48.130;-2.040;2024-01-06T04:07:31;2.80;;;2.10;;
61397;SDS011;47267;48.130;-2.040;2024-01-06T04:09:58;3.10;;;2.22;;
61397;SDS011;47267;48.130;-2.040;2024-01-06T04:12:24;3.35;;;2.28;;
61397;SDS011;47267;48.130;-2.040;2024-01-06T04:14:50;3.53;;;2.25;;
61397;SDS011;47267;48.130;-2.040;2024-01-06T04:17:16;2.67;;;1.90;;
61397;SDS011;47267;48.130;-2.040;2024-01-06T04:19:41;2.95;;;2.10;;
61397;SDS011;47267;48.130;-2.040;2024-01-06T04:22:07;4.85;;;2.47;;
61397;SDS011;47267;48.130;-2.040;2024-01-06T04:24:32;2.97;;;2.28;;
61397;SDS011;47267;48.130;-2.040;2024-01-06T04:27:02;3.15;;;2.22;;
61397;SDS011;47267;48.130;-2.040;2024-01-06T04:29:29;2.47;;;1.90;;
61397;SDS011;47267;48.130;-2.040;2024-01-06T04:31:55;2.38;;;1.80;;
61397;SDS011;47267;48.130;-2.040;2024-01-06T04:34:20;3.20;;;1.85;;
61397;SDS011;47267;48.130;-2.040;2024-01-06T04:36:46;2.72;;;1.80;;
61397;SDS011;47267;48.130;-2.040;2024-01-06T04:39:13;2.67;;;1.92;;
61397;SDS011;47267;48.130;-2.040;2024-01-06T04:41:39;3.15;;;2.00;;
61397;SDS011;47267;48.130;-2.040;2024-01-06T04:44:05;2.65;;;1.90;;
61397;SDS011;47267;48.130;-2.040;2024-01-06T04:46:31;2.95;;;1.95;;
61397;SDS011;47267;48.130;-2.040;2024-01-06T04:48:57;2.30;;;1.65;;
61397;SDS011;47267;48.130;-2.040;2024-01-06T04:51:22;2.35;;;1.70;;
61397;SDS011;47267;48.130;-2.040;2024-01-06T04:53:48;2.67;;;1.90;;
61397;SDS011;47267;48.130;-2.040;2024-01-06T04:56:13;3.20;;;1.98;;
61397;SDS011;47267;48.130;-2.040;2024-01-06T04:58:39;2.35;;;1.83;;
61397;SDS011;47267;48.130;-2.040;2024-01-06T05:01:05;2.35;;;1.80;;
61397;SDS011;47267;48.130;-2.040;2024-01-06T05:03:31;2.92;;;1.50;;
61397;SDS011;47267;48.130;-2.040;2024-01-06T05:05:57;2.50;;;1.70;;
61397;SDS011;47267;48.130;-2.040;2024-01-06T05:08:22;2.63;;;1.80;;
61397;SDS011;47267;48.130;-2.040;2024-01-06T05:10:50;3.38;;;1.80;;
61397;SDS011;47267;48.130;-2.040;2024-01-06T05:13:17;2.38;;;1.70;;
61397;SDS011;47267;48.130;-2.040;2024-01-06T05:15:43;3.13;;;1.83;;
61397;SDS011;47267;48.130;-2.040;2024-01-06T05:18:08;2.10;;;1.55;;
61397;SDS011;47267;48.130;-2.040;2024-01-06T05:20:34;2.15;;;1.42;;
61397;SDS011;47267;48.130;-2.040;2024-01-06T05:23:00;2.28;;;1.60;;
61397;SDS011;47267;48.130;-2.040;2024-01-06T05:25:25;3.97;;;1.65;;
61397;SDS011;47267;48.130;-2.040;2024-01-06T05:27:51;1.80;;;1.30;;
61397;SDS011;47267;48.130;-2.040;2024-01-06T05:30:17;3.50;;;1.80;;
61397;SDS011;47267;48.130;-2.040;2024-01-06T05:32:43;2.15;;;1.42;;
61397;SDS011;47267;48.130;-2.040;2024-01-06T05:35:08;2.53;;;1.50;;
61397;SDS011;47267;48.130;-2.040;2024-01-06T05:37:34;1.88;;;1.60;;
61397;SDS011;47267;48.130;-2.040;2024-01-06T05:40:00;2.17;;;1.63;;
61397;SDS011;47267;48.130;-2.040;2024-01-06T05:42:28;2.30;;;1.40;;
61397;SDS011;47267;48.130;-2.040;2024-01-06T05:44:54;2.13;;;1.50;;
61397;SDS011;47267;48.130;-2.040;2024-01-06T05:47:20;2.33;;;1.63;;
61397;SDS011;47267;48.130;-2.040;2024-01-06T05:49:45;2.75;;;1.60;;
61397;SDS011;47267;48.130;-2.040;2024-01-06T05:52:11;2.20;;;1.40;;
61397;SDS011;47267;48.130;-2.040;2024-01-06T05:54:40;1.70;;;1.30;;
61397;SDS011;47267;48.130;-2.040;2024-01-06T05:57:07;1.73;;;1.25;;
61397;SDS011;47267;48.130;-2.040;2024-01-06T05:59:33;2.00;;;1.20;;
61397;SDS011;47267;48.130;-2.040;2024-01-06T06:01:59;2.13;;;1.40;;
61397;SDS011;47267;48.130;-2.040;2024-01-06T06:04:25;1.98;;;1.30;;
61397;SDS011;47267;48.130;-2.040;2024-01-06T06:06:51;2.00;;;1.20;;
61397;SDS011;47267;48.130;-2.040;2024-01-06T06:09:16;2.05;;;1.40;;
61397;SDS011;47267;48.130;-2.040;2024-01-06T06:11:42;1.95;;;1.23;;
61397;SDS011;47267;48.130;-2.040;2024-01-06T06:14:08;1.98;;;1.17;;
61397;SDS011;47267;48.130;-2.040;2024-01-06T06:16:34;1.52;;;1.17;;
61397;SDS011;47267;48.130;-2.040;2024-01-06T06:19:00;2.10;;;1.30;;
61397;SDS011;47267;48.130;-2.040;2024-01-06T06:21:26;2.15;;;1.50;;
61397;SDS011;47267;48.130;-2.040;2024-01-06T06:23:51;1.67;;;1.17;;
61397;SDS011;47267;48.130;-2.040;2024-01-06T06:26:17;1.98;;;1.33;;
61397;SDS011;47267;48.130;-2.040;2024-01-06T06:28:42;1.42;;;1.00;;
61397;SDS011;47267;48.130;-2.040;2024-01-06T06:31:08;1.38;;;1.00;;
61397;SDS011;47267;48.130;-2.040;2024-01-06T06:33:34;1.30;;;0.90;;
61397;SDS011;47267;48.130;-2.040;2024-01-06T06:35:59;2.00;;;1.30;;
61397;SDS011;47267;48.130;-2.040;2024-01-06T06:38:26;1.60;;;1.20;;
61397;SDS011;47267;48.130;-2.040;2024-01-06T06:40:52;1.30;;;0.98;;
61397;SDS011;47267;48.130;-2.040;2024-01-06T06:43:18;1.77;;;1.25;;
61397;SDS011;47267;48.130;-2.040;2024-01-06T06:45:44;1.95;;;1.13;;
61397;SDS011;47267;48.130;-2.040;2024-01-06T06:48:09;1.40;;;0.98;;
61397;SDS011;47267;48.130;-2.040;2024-01-06T06:50:35;1.60;;;1.10;;
61397;SDS011;47267;48.130;-2.040;2024-01-06T06:53:02;1.50;;;1.17;;
61397;SDS011;47267;48.130;-2.040;2024-01-06T06:55:28;1.90;;;1.17;;
61397;SDS011;47267;48.130;-2.040;2024-01-06T06:57:53;1.50;;;0.93;;
61397;SDS011;47267;48.130;-2.040;2024-01-06T07:00:19;1.77;;;1.00;;
61397;SDS011;47267;48.130;-2.040;2024-01-06T07:02:45;1.52;;;1.00;;
61397;SDS011;47267;48.130;-2.040;2024-01-06T07:05:11;1.10;;;0.80;;
61397;SDS011;47267;48.130;-2.040;2024-01-06T07:07:37;1.38;;;0.90;;
61397;SDS011;47267;48.130;-2.040;2024-01-06T07:10:06;1.88;;;1.10;;
61397;SDS011;47267;48.130;-2.040;2024-01-06T07:12:32;1.83;;;1.00;;
61397;SDS011;47267;48.130;-2.040;2024-01-06T07:14:58;1.73;;;0.90;;
61397;SDS011;47267;48.130;-2.040;2024-01-06T07:17:24;1.50;;;1.10;;
61397;SDS011;47267;48.130;-2.040;2024-01-06T07:19:50;2.17;;;1.35;;
61397;SDS011;47267;48.130;-2.040;2024-01-06T07:22:16;2.88;;;1.27;;
61397;SDS011;47267;48.130;-2.040;2024-01-06T07:24:43;2.55;;;0.90;;
61397;SDS011;47267;48.130;-2.040;2024-01-06T07:27:09;1.40;;;0.95;;
61397;SDS011;47267;48.130;-2.040;2024-01-06T07:29:34;2.30;;;1.20;;
61397;SDS011;47267;48.130;-2.040;2024-01-06T07:32:00;1.17;;;0.85;;
61397;SDS011;47267;48.130;-2.040;2024-01-06T07:34:26;1.58;;;1.05;;
61397;SDS011;47267;48.130;-2.040;2024-01-06T07:36:52;1.50;;;1.00;;
61397;SDS011;47267;48.130;-2.040;2024-01-06T07:39:18;1.52;;;0.93;;
61397;SDS011;47267;48.130;-2.040;2024-01-06T07:41:43;1.42;;;1.02;;
61397;SDS011;47267;48.130;-2.040;2024-01-06T07:44:12;1.75;;;1.00;;
61397;SDS011;47267;48.130;-2.040;2024-01-06T07:46:38;1.50;;;1.00;;
61397;SDS011;47267;48.130;-2.040;2024-01-06T07:49:05;1.92;;;1.10;;
61397;SDS011;47267;48.130;-2.040;2024-01-06T07:51:31;0.90;;;0.70;;
61397;SDS011;47267;48.130;-2.040;2024-01-06T07:53:59;1.95;;;0.95;;
61397;SDS011;47267;48.130;-2.040;2024-01-06T07:56:25;1.30;;;1.00;;
61397;SDS011;47267;48.130;-2.040;2024-01-06T07:58:50;1.92;;;1.00;;
61397;SDS011;47267;48.130;-2.040;2024-01-06T08:01:17;1.65;;;0.88;;
61397;SDS011;47267;48.130;-2.040;2024-01-06T08:03:43;1.30;;;0.80;;
61397;SDS011;47267;48.130;-2.040;2024-01-06T08:06:09;1.85;;;1.10;;
61397;SDS011;47267;48.130;-2.040;2024-01-06T08:08:35;1.17;;;0.75;;
61397;SDS011;47267;48.130;-2.040;2024-01-06T08:11:01;1.13;;;0.93;;
61397;SDS011;47267;48.130;-2.040;2024-01-06T08:13:26;1.25;;;0.93;;
61397;SDS011;47267;48.130;-2.040;2024-01-06T08:15:52;1.42;;;0.98;;
61397;SDS011;47267;48.130;-2.040;2024-01-06T08:18:18;1.95;;;0.93;;
61397;SDS011;47267;48.130;-2.040;2024-01-06T08:20:44;1.80;;;1.13;;
61397;SDS011;47267;48.130;-2.040;2024-01-06T08:23:10;1.90;;;1.10;;
61397;SDS011;47267;48.130;-2.040;2024-01-06T08:25:35;1.67;;;1.05;;
61397;SDS011;47267;48.130;-2.040;2024-01-06T08:28:01;1.75;;;0.90;;
61397;SDS011;47267;48.130;-2.040;2024-01-06T08:30:27;1.65;;;1.00;;
61397;SDS011;47267;48.130;-2.040;2024-01-06T08:32:53;1.42;;;0.85;;
61397;SDS011;47267;48.130;-2.040;2024-01-06T08:35:19;1.23;;;0.80;;
61397;SDS011;47267;48.130;-2.040;2024-01-06T08:37:45;1.70;;;0.90;;
61397;SDS011;47267;48.130;-2.040;2024-01-06T08:40:11;1.45;;;0.80;;
61397;SDS011;47267;48.130;-2.040;2024-01-06T08:42:37;1.38;;;0.90;;
61397;SDS011;47267;48.130;-2.040;2024-01-06T08:45:03;1.67;;;0.95;;
61397;SDS011;47267;48.130;-2.040;2024-01-06T08:47:30;2.35;;;0.90;;
61397;SDS011;47267;48.130;-2.040;2024-01-06T08:49:56;1.20;;;0.80;;
61397;SDS011;47267;48.130;-2.040;2024-01-06T08:52:21;3.42;;;0.93;;
61397;SDS011;47267;48.130;-2.040;2024-01-06T08:54:47;2.60;;;1.00;;
61397;SDS011;47267;48.130;-2.040;2024-01-06T08:57:14;2.55;;;0.70;;
61397;SDS011;47267;48.130;-2.040;2024-01-06T08:59:40;2.40;;;0.85;;
61397;SDS011;47267;48.130;-2.040;2024-01-06T09:02:06;1.98;;;0.85;;
61397;SDS011;47267;48.130;-2.040;2024-01-06T09:04:31;2.22;;;1.00;;
61397;SDS011;47267;48.130;-2.040;2024-01-06T09:06:57;2.55;;;0.98;;
61397;SDS011;47267;48.130;-2.040;2024-01-06T09:09:23;2.35;;;0.95;;
61397;SDS011;47267;48.130;-2.040;2024-01-06T09:11:49;2.25;;;1.05;;
61397;SDS011;47267;48.130;-2.040;2024-01-06T09:14:16;3.90;;;1.00;;
61397;SDS011;47267;48.130;-2.040;2024-01-06T09:16:42;2.45;;;1.25;;
61397;SDS011;47267;48.130;-2.040;2024-01-06T09:19:07;1.95;;;1.08;;
61397;SDS011;47267;48.130;-2.040;2024-01-06T09:21:33;1.73;;;1.10;;
61397;SDS011;47267;48.130;-2.040;2024-01-06T09:23:59;4.30;;;1.33;;
61397;SDS011;47267;48.130;-2.040;2024-01-06T09:26:30;5.30;;;1.60;;
61397;SDS011;47267;48.130;-2.040;2024-01-06T09:28:59;5.57;;;1.45;;
61397;SDS011;47267;48.130;-2.040;2024-01-06T09:31:25;3.60;;;1.38;;
61397;SDS011;47267;48.130;-2.040;2024-01-06T09:33:51;5.70;;;1.40;;
61397;SDS011;47267;48.130;-2.040;2024-01-06T09:36:17;5.82;;;1.80;;
61397;SDS011;47267;48.130;-2.040;2024-01-06T09:38:43;5.47;;;1.73;;
61397;SDS011;47267;48.130;-2.040;2024-01-06T09:41:09;3.88;;;1.70;;
61397;SDS011;47267;48.130;-2.040;2024-01-06T09:43:35;4.07;;;1.73;;
61397;SDS011;47267;48.130;-2.040;2024-01-06T09:46:43;2.97;;;1.45;;
61397;SDS011;47267;48.130;-2.040;2024-01-06T09:48:56;4.57;;;1.50;;
61397;SDS011;47267;48.130;-2.040;2024-01-06T09:51:23;4.63;;;1.95;;
61397;SDS011;47267;48.130;-2.040;2024-01-06T09:56:26;4.97;;;1.70;;
61397;SDS011;47267;48.130;-2.040;2024-01-06T09:58:54;4.03;;;1.77;;
61397;SDS011;47267;48.130;-2.040;2024-01-06T10:01:20;4.90;;;1.50;;
61397;SDS011;47267;48.130;-2.040;2024-01-06T10:03:46;5.10;;;2.00;;
61397;SDS011;47267;48.130;-2.040;2024-01-06T10:06:15;4.00;;;1.70;;
61397;SDS011;47267;48.130;-2.040;2024-01-06T10:08:44;3.83;;;1.38;;
61397;SDS011;47267;48.130;-2.040;2024-01-06T10:11:14;5.00;;;1.55;;
61397;SDS011;47267;48.130;-2.040;2024-01-06T10:13:40;4.85;;;1.17;;
61397;SDS011;47267;48.130;-2.040;2024-01-06T10:16:06;9.15;;;1.30;;
61397;SDS011;47267;48.130;-2.040;2024-01-06T10:18:32;8.30;;;1.98;;
61397;SDS011;47267;48.130;-2.040;2024-01-06T10:21:03;9.80;;;1.70;;
61397;SDS011;47267;48.130;-2.040;2024-01-06T10:23:31;5.85;;;1.77;;
61397;SDS011;47267;48.130;-2.040;2024-01-06T10:25:57;5.05;;;2.17;;
61397;SDS011;47267;48.130;-2.040;2024-01-06T10:28:23;8.65;;;1.83;;
61397;SDS011;47267;48.130;-2.040;2024-01-06T10:30:52;6.82;;;1.88;;
61397;SDS011;47267;48.130;-2.040;2024-01-06T10:33:19;21.02;;;3.00;;
61397;SDS011;47267;48.130;-2.040;2024-01-06T10:35:46;12.98;;;2.65;;
61397;SDS011;47267;48.130;-2.040;2024-01-06T10:38:12;11.15;;;3.05;;
61397;SDS011;47267;48.130;-2.040;2024-01-06T10:40:45;8.93;;;2.92;;
61397;SDS011;47267;48.130;-2.040;2024-01-06T10:43:27;15.20;;;3.28;;
61397;SDS011;47267;48.130;-2.040;2024-01-06T10:45:59;14.73;;;3.75;;
61397;SDS011;47267;48.130;-2.040;2024-01-06T10:48:30;10.27;;;3.50;;
61397;SDS011;47267;48.130;-2.040;2024-01-06T10:50:57;14.23;;;4.15;;
61397;SDS011;47267;48.130;-2.040;2024-01-06T10:53:27;16.98;;;4.85;;
61397;SDS011;47267;48.130;-2.040;2024-01-06T10:55:53;11.95;;;4.47;;
61397;SDS011;47267;48.130;-2.040;2024-01-06T10:58:19;14.85;;;5.63;;
61397;SDS011;47267;48.130;-2.040;2024-01-06T11:00:45;20.65;;;6.32;;
61397;SDS011;47267;48.130;-2.040;2024-01-06T11:03:13;16.40;;;6.32;;
61397;SDS011;47267;48.130;-2.040;2024-01-06T11:05:40;17.20;;;7.05;;
61397;SDS011;47267;48.130;-2.040;2024-01-06T11:08:07;20.73;;;8.27;;
61397;SDS011;47267;48.130;-2.040;2024-01-06T11:10:33;15.63;;;8.48;;
61397;SDS011;47267;48.130;-2.040;2024-01-06T11:13:11;16.08;;;8.30;;
61397;SDS011;47267;48.130;-2.040;2024-01-06T11:15:39;18.83;;;9.05;;
61397;SDS011;47267;48.130;-2.040;2024-01-06T11:18:34;33.28;;;10.13;;
61397;SDS011;47267;48.130;-2.040;2024-01-06T11:23:39;18.02;;;10.38;;
61397;SDS011;47267;48.130;-2.040;2024-01-06T11:26:08;16.55;;;10.25;;
61397;SDS011;47267;48.130;-2.040;2024-01-06T11:28:47;19.45;;;11.18;;
61397;SDS011;47267;48.130;-2.040;2024-01-06T11:31:13;14.88;;;9.68;;
61397;SDS011;47267;48.130;-2.040;2024-01-06T11:33:42;19.88;;;10.65;;
61397;SDS011;47267;48.130;-2.040;2024-01-06T11:36:09;14.15;;;9.55;;
61397;SDS011;47267;48.130;-2.040;2024-01-06T11:38:39;15.40;;;10.23;;
61397;SDS011;47267;48.130;-2.040;2024-01-06T11:41:08;16.73;;;10.27;;
61397;SDS011;47267;48.130;-2.040;2024-01-06T11:43:37;16.67;;;10.32;;
61397;SDS011;47267;48.130;-2.040;2024-01-06T11:46:06;13.80;;;9.63;;
61397;SDS011;47267;48.130;-2.040;2024-01-06T11:48:33;17.15;;;10.88;;
61397;SDS011;47267;48.130;-2.040;2024-01-06T11:50:59;17.00;;;10.88;;
61397;SDS011;47267;48.130;-2.040;2024-01-06T11:53:28;16.88;;;11.38;;
61397;SDS011;47267;48.130;-2.040;2024-01-06T11:55:54;17.10;;;10.35;;
61397;SDS011;47267;48.130;-2.040;2024-01-06T11:58:20;16.50;;;10.95;;
61397;SDS011;47267;48.130;-2.040;2024-01-06T12:00:54;15.32;;;10.48;;
61397;SDS011;47267;48.130;-2.040;2024-01-06T12:03:21;15.25;;;10.30;;
61397;SDS011;47267;48.130;-2.040;2024-01-06T12:06:00;15.75;;;9.80;;
61397;SDS011;47267;48.130;-2.040;2024-01-06T12:08:28;15.10;;;9.68;;
61397;SDS011;47267;48.130;-2.040;2024-01-06T12:11:04;14.57;;;9.98;;
61397;SDS011;47267;48.130;-2.040;2024-01-06T12:13:31;13.98;;;10.18;;
61397;SDS011;47267;48.130;-2.040;2024-01-06T12:15:57;15.60;;;9.38;;
61397;SDS011;47267;48.130;-2.040;2024-01-06T12:18:22;14.75;;;10.15;;
61397;SDS011;47267;48.130;-2.040;2024-01-06T12:20:50;13.98;;;9.48;;
61397;SDS011;47267;48.130;-2.040;2024-01-06T12:23:26;14.27;;;10.27;;
61397;SDS011;47267;48.130;-2.040;2024-01-06T12:25:53;14.90;;;10.65;;
61397;SDS011;47267;48.130;-2.040;2024-01-06T12:28:20;13.25;;;10.10;;
61397;SDS011;47267;48.130;-2.040;2024-01-06T12:30:45;15.05;;;10.75;;
61397;SDS011;47267;48.130;-2.040;2024-01-06T12:33:11;15.88;;;10.70;;
61397;SDS011;47267;48.130;-2.040;2024-01-06T12:35:37;14.80;;;11.82;;
61397;SDS011;47267;48.130;-2.040;2024-01-06T12:38:03;18.50;;;12.13;;
61397;SDS011;47267;48.130;-2.040;2024-01-06T12:40:32;19.33;;;12.88;;
61397;SDS011;47267;48.130;-2.040;2024-01-06T12:42:57;17.52;;;12.18;;
61397;SDS011;47267;48.130;-2.040;2024-01-06T12:45:23;16.60;;;12.63;;
61397;SDS011;47267;48.130;-2.040;2024-01-06T12:47:49;20.17;;;13.73;;
61397;SDS011;47267;48.130;-2.040;2024-01-06T12:50:16;17.73;;;12.13;;
61397;SDS011;47267;48.130;-2.040;2024-01-06T12:52:42;15.63;;;12.43;;
61397;SDS011;47267;48.130;-2.040;2024-01-06T12:55:09;15.82;;;13.15;;
61397;SDS011;47267;48.130;-2.040;2024-01-06T12:57:34;17.05;;;13.07;;
61397;SDS011;47267;48.130;-2.040;2024-01-06T13:00:00;13.63;;;12.13;;
61397;SDS011;47267;48.130;-2.040;2024-01-06T13:02:26;17.30;;;12.68;;
61397;SDS011;47267;48.130;-2.040;2024-01-06T13:04:52;16.38;;;12.45;;
61397;SDS011;47267;48.130;-2.040;2024-01-06T13:07:18;16.42;;;12.32;;
61397;SDS011;47267;48.130;-2.040;2024-01-06T13:09:44;19.50;;;12.30;;
61397;SDS011;47267;48.130;-2.040;2024-01-06T13:12:09;16.75;;;12.43;;
61397;SDS011;47267;48.130;-2.040;2024-01-06T13:14:35;13.50;;;11.75;;
61397;SDS011;47267;48.130;-2.040;2024-01-06T13:17:00;14.70;;;11.52;;
61397;SDS011;47267;48.130;-2.040;2024-01-06T13:19:27;15.10;;;12.00;;
61397;SDS011;47267;48.130;-2.040;2024-01-06T13:21:53;13.88;;;11.65;;
61397;SDS011;47267;48.130;-2.040;2024-01-06T13:24:19;15.32;;;12.52;;
61397;SDS011;47267;48.130;-2.040;2024-01-06T13:26:44;14.88;;;11.75;;
61397;SDS011;47267;48.130;-2.040;2024-01-06T13:29:10;13.75;;;11.48;;
61397;SDS011;47267;48.130;-2.040;2024-01-06T13:31:36;15.15;;;11.20;;
61397;SDS011;47267;48.130;-2.040;2024-01-06T13:34:02;14.48;;;10.77;;
61397;SDS011;47267;48.130;-2.040;2024-01-06T13:36:27;13.55;;;11.20;;
61397;SDS011;47267;48.130;-2.040;2024-01-06T13:38:53;15.60;;;11.65;;
61397;SDS011;47267;48.130;-2.040;2024-01-06T13:41:19;13.00;;;11.25;;
61397;SDS011;47267;48.130;-2.040;2024-01-06T13:43:45;11.32;;;10.15;;
61397;SDS011;47267;48.130;-2.040;2024-01-06T13:46:11;14.20;;;11.07;;
61397;SDS011;47267;48.130;-2.040;2024-01-06T13:48:39;11.85;;;10.55;;
61397;SDS011;47267;48.130;-2.040;2024-01-06T13:51:06;12.13;;;10.75;;
61397;SDS011;47267;48.130;-2.040;2024-01-06T13:53:32;14.10;;;10.15;;
61397;SDS011;47267;48.130;-2.040;2024-01-06T13:55:58;11.55;;;10.23;;
61397;SDS011;47267;48.130;-2.040;2024-01-06T13:58:23;12.20;;;9.60;;
61397;SDS011;47267;48.130;-2.040;2024-01-06T14:00:49;11.68;;;9.60;;
61397;SDS011;47267;48.130;-2.040;2024-01-06T14:03:15;12.75;;;10.13;;
61397;SDS011;47267;48.130;-2.040;2024-01-06T14:05:41;12.70;;;10.15;;
61397;SDS011;47267;48.130;-2.040;2024-01-06T14:08:06;11.85;;;10.05;;
61397;SDS011;47267;48.130;-2.040;2024-01-06T14:10:32;12.07;;;10.05;;
61397;SDS011;47267;48.130;-2.040;2024-01-06T14:12:58;10.88;;;9.05;;
61397;SDS011;47267;48.130;-2.040;2024-01-06T14:15:23;11.50;;;9.32;;
61397;SDS011;47267;48.130;-2.040;2024-01-06T14:17:51;12.60;;;9.63;;
61397;SDS011;47267;48.130;-2.040;2024-01-06T14:20:17;10.70;;;8.82;;
61397;SDS011;47267;48.130;-2.040;2024-01-06T14:22:46;10.07;;;8.73;;
61397;SDS011;47267;48.130;-2.040;2024-01-06T14:25:13;10.38;;;8.32;;
61397;SDS011;47267;48.130;-2.040;2024-01-06T14:27:40;10.48;;;8.90;;
61397;SDS011;47267;48.130;-2.040;2024-01-06T14:30:06;11.25;;;8.50;;